Time;durP1;ratioP1;P1;durP2;ratioP2;P2;SDS_P1;SDS_P2;PMS_P1;PMS_P2;Temp;Humidity;BMP_temperature;BMP_pressure;BME280_temperature;BME280_humidity;BME280_pressure;Samples;Min_cycle;Max_cycle;Signal;HPM_P1;HPM_P2
2024/03/15 00:02:11;;;;;;;9.00;5.70;;;17.10;78.80;;;;;;4165403;28;20060;-52
2024/03/15 00:04:52;;;;;;;;;;;17.10;78.60;;;;;;4173432;28;20044;-54
2024/03/15 00:07:34;;;;;;;8.55;6.97;;;17.10;78.70;;;;;;4170104;28;19928;-52
2024/03/15 00:10:15;;;;;;;7.90;6.57;;;17.00;79.20;;;;;;4158529;28;20056;-53
2024/03/15 00:12:56;;;;;;;8.60;6.60;;;17.00;79.00;;;;;;4159559;28;20114;-51
2024/03/15 00:15:39;;;;;;;10.45;6.43;;;17.00;78.90;;;;;;4161004;28;20839;-54
2024/03/15 00:18:20;;;;;;;10.48;6.68;;;17.00;78.80;;;;;;4172838;28;20047;-52
2024/03/15 00:21:02;;;;;;;11.30;6.25;;;17.00;78.70;;;;;;4187648;28;20193;-43
2024/03/15 00:23:43;;;;;;;7.53;5.95;;;17.00;78.70;;;;;;4171928;28;20056;-43
2024/03/15 00:26:24;;;;;;;6.97;5.97;;;17.00;79.60;;;;;;4170729;28;20602;-43
2024/03/15 00:29:08;;;;;;;6.68;5.95;;;17.00;79.90;;;;;;4162263;28;20048;-43
2024/03/15 00:31:49;;;;;;;8.32;6.03;;;17.00;78.90;;;;;;4185149;28;20059;-43
2024/03/15 00:34:30;;;;;;;9.40;5.70;;;17.00;79.00;;;;;;4170321;28;20398;-43
2024/03/15 00:37:12;;;;;;;6.75;5.97;;;16.90;79.00;;;;;;4185880;28;20537;-42
2024/03/15 00:39:53;;;;;;;7.82;5.97;;;17.00;79.90;;;;;;4186703;28;20055;-43
2024/03/15 00:42:34;;;;;;;5.80;5.30;;;17.00;79.20;;;;;;4170332;28;20262;-44
2024/03/15 00:45:15;;;;;;;8.10;5.75;;;17.00;80.10;;;;;;4160659;28;20215;-43
2024/03/15 00:47:56;;;;;;;6.20;5.53;;;16.90;79.30;;;;;;4166265;28;20052;-43
2024/03/15 00:50:37;;;;;;;6.95;6.15;;;17.00;79.30;;;;;;4159256;28;20499;-44
2024/03/15 00:53:18;;;;;;;7.65;6.25;;;16.90;79.30;;;;;;4167502;28;20059;-43
2024/03/15 00:55:59;;;;;;;6.72;5.95;;;16.90;79.50;;;;;;4166879;28;20057;-43
2024/03/15 00:58:40;;;;;;;7.07;5.75;;;16.90;79.50;;;;;;4171334;28;20098;-44
2024/03/15 01:01:21;;;;;;;8.75;5.53;;;16.90;79.60;;;;;;4158989;28;20190;-48
2024/03/15 01:04:03;;;;;;;6.30;5.22;;;16.90;79.50;;;;;;4176210;28;20419;-49
2024/03/15 01:06:45;;;;;;;8.52;5.32;;;16.90;79.50;;;;;;4165811;28;20519;-49
2024/03/15 01:09:26;;;;;;;7.43;5.50;;;16.90;79.60;;;;;;4167738;28;20056;-49
2024/03/15 01:12:07;;;;;;;;;;;16.90;79.60;;;;;;4176007;28;20052;-48
2024/03/15 01:14:48;;;;;;;7.00;6.05;;;16.90;79.60;;;;;;4186409;28;20062;-49
2024/03/15 01:17:29;;;;;;;5.95;5.32;;;16.90;80.20;;;;;;4185569;28;20051;-48
2024/03/15 01:20:11;;;;;;;5.78;5.13;;;16.90;80.10;;;;;;4159436;28;20056;-50
2024/03/15 01:22:52;;;;;;;7.93;5.80;;;16.90;80.00;;;;;;4155510;28;20052;-49
2024/03/15 01:25:34;;;;;;;6.45;5.63;;;16.90;80.00;;;;;;4161619;28;20056;-49
2024/03/15 01:28:16;;;;;;;6.20;5.15;;;16.80;80.00;;;;;;4162782;28;20056;-50
2024/03/15 01:30:58;;;;;;;6.15;5.55;;;16.80;80.00;;;;;;4158781;28;20064;-50
2024/03/15 01:33:38;;;;;;;;;;;16.80;80.00;;;;;;4158747;28;20483;-49
2024/03/15 01:36:20;;;;;;;5.85;4.75;;;16.80;79.90;;;;;;4170075;28;19927;-49
2024/03/15 01:39:01;;;;;;;7.10;4.97;;;16.80;80.40;;;;;;4156547;28;20067;-48
2024/03/15 01:41:42;;;;;;;6.45;5.13;;;16.80;80.10;;;;;;4169673;28;20060;-49
2024/03/15 01:44:23;;;;;;;6.15;5.40;;;16.80;80.20;;;;;;4147451;28;20064;-49
2024/03/15 01:47:05;;;;;;;7.20;5.57;;;16.80;80.00;;;;;;4162353;28;20059;-49
2024/03/15 01:49:46;;;;;;;6.30;4.78;;;16.80;80.00;;;;;;4160409;28;20084;-53
2024/03/15 01:52:30;;;;;;;5.90;5.32;;;16.80;79.90;;;;;;4158537;28;20178;-52
2024/03/15 01:55:11;;;;;;;8.38;5.68;;;16.80;80.00;;;;;;4179942;28;20384;-49
2024/03/15 01:57:52;;;;;;;6.50;5.03;;;16.80;80.00;;;;;;4179489;28;20191;-49
2024/03/15 02:00:33;;;;;;;6.32;5.45;;;16.70;80.30;;;;;;4158800;28;20056;-51
2024/03/15 02:03:14;;;;;;;7.03;4.63;;;16.80;80.30;;;;;;4158612;28;20632;-49
2024/03/15 02:05:55;;;;;;;6.05;5.05;;;16.80;80.50;;;;;;4158121;28;20552;-49
2024/03/15 02:08:37;;;;;;;6.45;5.40;;;16.80;80.40;;;;;;4158885;28;20134;-49
2024/03/15 02:11:18;;;;;;;5.97;5.10;;;16.70;80.30;;;;;;4170984;28;20055;-49
2024/03/15 02:13:59;;;;;;;5.78;5.28;;;16.70;80.30;;;;;;4185296;28;20059;-48
2024/03/15 02:16:40;;;;;;;5.07;4.55;;;16.70;80.20;;;;;;4186063;28;20060;-49
2024/03/15 02:19:21;;;;;;;6.70;5.03;;;16.70;80.10;;;;;;4184603;28;20051;-50
2024/03/15 02:22:02;;;;;;;6.35;4.78;;;16.70;80.30;;;;;;4171523;28;20051;-49
2024/03/15 02:24:44;;;;;;;6.43;5.47;;;16.70;80.30;;;;;;4160925;28;20106;-42
2024/03/15 02:27:28;;;;;;;5.75;5.00;;;16.70;80.40;;;;;;4161274;28;20056;-43
2024/03/15 02:30:11;;;;;;;7.45;5.03;;;16.70;80.40;;;;;;4161547;28;20064;-43
2024/03/15 02:32:52;;;;;;;6.53;5.45;;;16.70;80.40;;;;;;4162064;28;20051;-43
2024/03/15 02:35:34;;;;;;;6.47;5.07;;;16.70;80.50;;;;;;4161751;28;20052;-42
2024/03/15 02:38:16;;;;;;;6.38;5.05;;;16.70;80.40;;;;;;4159463;28;20514;-42
2024/03/15 02:40:57;;;;;;;5.18;4.68;;;16.70;80.50;;;;;;4188996;28;20064;-43
2024/03/15 02:43:39;;;;;;;6.63;5.03;;;16.70;80.60;;;;;;4182529;28;20094;-43
2024/03/15 02:46:21;;;;;;;6.07;5.25;;;16.70;80.40;;;;;;4161598;28;20507;-43
2024/03/15 02:49:03;;;;;;;6.50;5.47;;;16.70;80.60;;;;;;4152048;28;20163;-43
2024/03/15 02:51:44;;;;;;;6.03;5.28;;;16.70;80.90;;;;;;4186042;28;20060;-44
2024/03/15 02:54:26;;;;;;;6.13;4.78;;;16.70;80.40;;;;;;4180955;28;20103;-44
2024/03/15 02:57:07;;;;;;;5.57;5.07;;;16.70;80.70;;;;;;4173758;28;20056;-43
2024/03/15 02:59:48;;;;;;;6.55;5.32;;;16.70;80.80;;;;;;4184671;28;20068;-42
2024/03/15 03:02:30;;;;;;;5.88;5.28;;;16.70;80.90;;;;;;4177215;28;20071;-43
2024/03/15 03:05:12;;;;;;;8.60;5.50;;;16.60;80.80;;;;;;4177747;28;20051;-43
2024/03/15 03:07:53;;;;;;;6.88;4.90;;;16.60;80.70;;;;;;4161114;28;20555;-43
2024/03/15 03:10:34;;;;;;;7.65;5.50;;;16.60;80.80;;;;;;4161327;28;20060;-43
2024/03/15 03:13:15;;;;;;;6.47;5.05;;;16.60;80.80;;;;;;4159712;28;20090;-43
2024/03/15 03:15:56;;;;;;;7.03;5.13;;;16.60;80.80;;;;;;4176878;28;20051;-43
2024/03/15 03:18:37;;;;;;;8.82;5.40;;;16.60;80.90;;;;;;4165619;28;20488;-43
2024/03/15 03:21:19;;;;;;;9.93;5.50;;;16.60;81.20;;;;;;4186974;28;20043;-43
2024/03/15 03:24:00;;;;;;;6.82;5.47;;;16.60;81.20;;;;;;4171950;28;20191;-42
2024/03/15 03:26:42;;;;;;;7.32;5.30;;;16.60;81.20;;;;;;4172567;28;20052;-42
2024/03/15 03:29:23;;;;;;;5.90;5.40;;;16.60;81.40;;;;;;4185033;28;20095;-47
2024/03/15 03:32:05;;;;;;;6.72;5.65;;;16.60;81.50;;;;;;4168818;28;20396;-47
2024/03/15 03:34:48;;;;;;;6.65;5.25;;;16.60;81.70;;;;;;4156417;28;20403;-41
2024/03/15 03:37:28;;;;;;;7.28;6.18;;;16.60;81.80;;;;;;4184843;28;20060;-42
2024/03/15 03:40:15;;;;;;;8.40;5.60;;;16.60;81.70;;;;;;4186036;28;20063;-41
2024/03/15 03:42:56;;;;;;;8.07;5.38;;;16.60;81.80;;;;;;4163662;28;20067;-42
2024/03/15 03:45:38;;;;;;;8.13;5.47;;;16.60;82.00;;;;;;4186356;28;20054;-41
2024/03/15 03:48:22;;;;;;;6.78;5.90;;;16.60;82.10;;;;;;4170761;28;20475;-42
2024/03/15 03:51:04;;;;;;;6.45;5.47;;;16.60;82.10;;;;;;4159734;28;20060;-42
2024/03/15 03:53:46;;;;;;;;;;;16.60;82.10;;;;;;4159672;28;20063;-42
2024/03/15 03:56:29;;;;;;;6.60;5.90;;;16.60;82.90;;;;;;4170459;28;19985;-42
2024/03/15 03:59:10;;;;;;;7.45;6.35;;;16.60;82.40;;;;;;4159442;28;20189;-41
2024/03/15 04:01:51;;;;;;;9.27;6.28;;;16.60;82.50;;;;;;4159343;28;20060;-50
2024/03/15 04:04:33;;;;;;;6.65;5.85;;;16.60;82.70;;;;;;4159405;28;20171;-49
2024/03/15 04:07:14;;;;;;;7.85;6.20;;;16.50;82.70;;;;;;4159624;28;20056;-53
2024/03/15 04:09:55;;;;;;;8.63;5.72;;;16.50;82.80;;;;;;4159100;28;20059;-50
2024/03/15 04:12:36;;;;;;;7.43;5.75;;;16.50;82.90;;;;;;4167663;28;20593;-41
2024/03/15 04:15:19;;;;;;;6.28;5.10;;;16.50;82.90;;;;;;4167561;28;20067;-41
2024/03/15 04:18:04;;;;;;;8.27;5.97;;;16.50;82.90;;;;;;4155300;28;20047;-42
2024/03/15 04:20:46;;;;;;;8.85;6.32;;;16.50;83.10;;;;;;4150385;28;20055;-42
2024/03/15 04:23:27;;;;;;;7.05;6.03;;;16.50;83.10;;;;;;4186520;28;20046;-43
2024/03/15 04:26:09;;;;;;;8.88;6.13;;;16.50;84.00;;;;;;4187502;28;20502;-43
2024/03/15 04:28:51;;;;;;;;;;;16.50;83.20;;;;;;4160033;28;20052;-42
2024/03/15 04:31:32;;;;;;;7.47;5.85;;;16.50;83.20;;;;;;4176461;28;20486;-42
2024/03/15 04:34:14;;;;;;;8.95;6.25;;;16.50;83.40;;;;;;4184918;28;20411;-42
2024/03/15 04:36:55;;;;;;;8.48;5.53;;;16.50;83.50;;;;;;4169587;28;20137;-42
2024/03/15 04:39:36;;;;;;;8.10;6.35;;;16.50;83.50;;;;;;4169056;28;20499;-42
2024/03/15 04:42:20;;;;;;;8.93;6.47;;;16.50;83.60;;;;;;4172666;28;20518;-42
2024/03/15 04:45:06;;;;;;;8.18;5.93;;;16.50;83.60;;;;;;4164343;28;20075;-43
2024/03/15 04:47:48;;;;;;;8.85;5.85;;;16.50;83.70;;;;;;4183543;28;20125;-42
2024/03/15 04:50:30;;;;;;;9.25;6.22;;;16.40;83.70;;;;;;4168969;28;20048;-42
2024/03/15 04:53:12;;;;;;;7.90;5.45;;;16.50;83.90;;;;;;4166069;28;20074;-42
2024/03/15 04:55:54;;;;;;;7.13;5.85;;;16.50;84.00;;;;;;4170264;28;20056;-41
2024/03/15 04:58:36;;;;;;;9.82;5.63;;;16.50;84.20;;;;;;4171131;28;20048;-41
2024/03/15 05:01:18;;;;;;;7.72;5.82;;;16.50;84.30;;;;;;4163020;28;20055;-40
2024/03/15 05:03:59;;;;;;;8.48;6.57;;;16.50;84.50;;;;;;4171500;28;20055;-41
2024/03/15 05:06:40;;;;;;;8.18;6.65;;;16.40;84.60;;;;;;4169737;28;20124;-41
2024/03/15 05:09:22;;;;;;;9.60;6.13;;;16.50;84.70;;;;;;4163839;28;20091;-41
2024/03/15 05:12:03;;;;;;;7.13;5.95;;;16.40;84.70;;;;;;4160552;28;20067;-41
2024/03/15 05:14:44;;;;;;;6.32;5.43;;;16.40;84.80;;;;;;4173940;28;20101;-41
2024/03/15 05:17:26;;;;;;;6.75;5.50;;;16.40;85.00;;;;;;4175108;28;20056;-41
2024/03/15 05:20:09;;;;;;;7.13;6.03;;;16.40;85.10;;;;;;4161907;28;20163;-42
2024/03/15 05:22:51;;;;;;;7.03;5.68;;;16.40;85.00;;;;;;4159503;28;20072;-41
2024/03/15 05:25:32;;;;;;;10.32;6.20;;;16.40;85.10;;;;;;4167846;28;20449;-41
2024/03/15 05:28:14;;;;;;;5.97;5.43;;;16.40;85.10;;;;;;4162852;28;20056;-41
2024/03/15 05:30:56;;;;;;;9.13;6.57;;;16.40;85.10;;;;;;4158711;28;20059;-40
2024/03/15 05:33:37;;;;;;;8.20;6.50;;;16.40;85.10;;;;;;4151437;28;20052;-41
2024/03/15 05:36:18;;;;;;;7.22;6.53;;;16.40;85.20;;;;;;4167757;28;20509;-41
2024/03/15 05:38:59;;;;;;;;;;;16.40;85.30;;;;;;4160278;28;20407;-41
2024/03/15 05:41:40;;;;;;;7.60;6.43;;;16.40;85.10;;;;;;4180273;28;19930;-41
2024/03/15 05:44:21;;;;;;;8.65;6.50;;;16.40;85.10;;;;;;4166789;28;20844;-41
2024/03/15 05:47:03;;;;;;;8.20;7.03;;;16.40;85.80;;;;;;4186339;28;20102;-47
2024/03/15 05:49:45;;;;;;;8.65;6.93;;;16.40;85.30;;;;;;4171155;28;20080;-48
2024/03/15 05:52:25;;;;;;;;;;;16.40;85.30;;;;;;4159395;28;20051;-47
2024/03/15 05:55:08;;;;;;;7.40;6.20;;;16.40;85.30;;;;;;4169359;28;19931;-47
2024/03/15 05:57:49;;;;;;;7.80;6.78;;;16.40;85.40;;;;;;4160432;28;20055;-52
2024/03/15 06:00:33;;;;;;;9.18;7.10;;;16.40;86.30;;;;;;4184411;28;20506;-50
2024/03/15 06:03:16;;;;;;;7.45;6.68;;;16.40;85.50;;;;;;4173240;28;20134;-48
2024/03/15 06:05:56;;;;;;;9.05;7.78;;;16.40;85.60;;;;;;4185855;28;20059;-47
2024/03/15 06:08:38;;;;;;;8.85;6.88;;;16.40;85.60;;;;;;4169221;28;20173;-47
2024/03/15 06:11:20;;;;;;;9.07;7.93;;;16.40;85.70;;;;;;4158943;28;20055;-48
2024/03/15 06:14:01;;;;;;;8.02;7.03;;;16.40;85.60;;;;;;4166334;28;20083;-47
2024/03/15 06:16:42;;;;;;;9.40;8.02;;;16.40;85.70;;;;;;4152514;28;20043;-47
2024/03/15 06:19:24;;;;;;;9.57;8.38;;;16.40;85.70;;;;;;4158689;28;20404;-50
2024/03/15 06:22:05;;;;;;;14.82;7.72;;;16.40;85.70;;;;;;4158386;28;20056;-52
2024/03/15 06:24:46;;;;;;;9.85;7.25;;;16.40;85.90;;;;;;4164500;28;20056;-47
2024/03/15 06:27:28;;;;;;;8.55;7.53;;;16.40;86.20;;;;;;4158627;28;20097;-48
2024/03/15 06:30:12;;;;;;;8.88;7.95;;;16.40;86.20;;;;;;4157418;28;20060;-48
2024/03/15 06:32:59;;;;;;;10.27;6.88;;;16.40;86.10;;;;;;4167265;28;20179;-50
2024/03/15 06:35:39;;;;;;;11.75;8.77;;;16.40;86.00;;;;;;4168993;28;20079;-47
2024/03/15 06:38:30;;;;;;;12.02;7.95;;;16.50;86.00;;;;;;4159909;28;20069;-50
2024/03/15 06:41:14;;;;;;;11.52;8.40;;;16.40;86.00;;;;;;4160579;28;20055;-43
2024/03/15 06:43:59;;;;;;;15.65;8.10;;;16.40;86.00;;;;;;4158100;28;20060;-48
2024/03/15 06:47:04;;;;;;;9.68;7.95;;;16.40;86.00;;;;;;4167560;28;20097;-49
2024/03/15 06:49:48;;;;;;;13.88;7.93;;;16.40;86.00;;;;;;4168892;28;20060;-49
2024/03/15 06:52:34;;;;;;;9.20;7.45;;;16.40;86.10;;;;;;4157643;28;20048;-48
2024/03/15 06:55:17;;;;;;;8.65;7.75;;;16.40;86.10;;;;;;4157800;28;20056;-48
2024/03/15 06:57:58;;;;;;;9.57;8.07;;;16.40;86.20;;;;;;4158122;28;20044;-47
2024/03/15 07:00:45;;;;;;;8.73;7.82;;;16.40;86.20;;;;;;4169819;28;20195;-52
2024/03/15 07:03:27;;;;;;;10.45;7.55;;;16.40;86.30;;;;;;4156952;28;20056;-48
2024/03/15 07:06:09;;;;;;;9.77;8.00;;;16.40;86.30;;;;;;4155549;28;20056;-48
2024/03/15 07:08:50;;;;;;;8.65;6.78;;;16.40;86.40;;;;;;4169926;28;20060;-39
2024/03/15 07:11:32;;;;;;;;;;;16.40;86.40;;;;;;4160020;28;20507;-40
2024/03/15 07:14:14;;;;;;;8.73;4.88;;;16.40;86.50;;;;;;4169217;28;19974;-47
2024/03/15 07:16:55;;;;;;;9.63;7.28;;;16.40;86.40;;;;;;4159717;28;20048;-48
2024/03/15 07:19:36;;;;;;;10.13;7.32;;;16.40;86.40;;;;;;4160295;28;20072;-46
2024/03/15 07:22:18;;;;;;;11.05;7.18;;;16.40;86.50;;;;;;4163510;28;20056;-46
2024/03/15 07:25:03;;;;;;;8.98;7.38;;;16.40;86.50;;;;;;4161489;28;20190;-46
2024/03/15 07:27:44;;;;;;;9.65;8.63;;;16.40;86.50;;;;;;4178420;28;20075;-48
2024/03/15 07:30:25;;;;;;;10.70;9.02;;;16.40;86.60;;;;;;4160461;28;20052;-51
2024/03/15 07:33:07;;;;;;;8.77;7.88;;;16.40;86.60;;;;;;4171506;28;20183;-46
2024/03/15 07:35:48;;;;;;;7.90;7.10;;;16.40;86.60;;;;;;4175689;28;20364;-48
2024/03/15 07:38:30;;;;;;;9.93;7.28;;;16.40;86.70;;;;;;4148958;28;20068;-46
2024/03/15 07:41:11;;;;;;;6.10;4.13;;;16.30;86.80;;;;;;4164460;28;20052;-47
2024/03/15 07:43:52;;;;;;;8.30;7.20;;;16.30;87.00;;;;;;4185582;28;20051;-47
2024/03/15 07:46:34;;;;;;;7.05;6.38;;;16.40;87.10;;;;;;4160854;28;20175;-46
2024/03/15 07:49:15;;;;;;;7.28;6.57;;;16.30;87.10;;;;;;4153452;28;20055;-46
2024/03/15 07:51:56;;;;;;;9.63;7.32;;;16.30;88.00;;;;;;4160528;28;20072;-46
2024/03/15 07:54:37;;;;;;;;;;;16.30;87.30;;;;;;4158315;28;20086;-46
2024/03/15 07:57:19;;;;;;;6.25;5.25;;;16.30;87.20;;;;;;4177497;28;19945;-46
2024/03/15 08:00:00;;;;;;;7.63;6.07;;;16.30;87.30;;;;;;4178097;28;20438;-46
2024/03/15 08:02:43;;;;;;;9.80;7.60;;;16.30;87.40;;;;;;4186709;28;20059;-46
2024/03/15 08:05:27;;;;;;;9.15;7.93;;;16.30;87.30;;;;;;4186132;28;20052;-47
2024/03/15 08:08:08;;;;;;;6.22;4.95;;;16.30;87.90;;;;;;4175638;28;20064;-48
2024/03/15 08:10:49;;;;;;;6.57;4.78;;;16.30;87.40;;;;;;4187425;28;20059;-51
2024/03/15 08:13:30;;;;;;;7.00;5.97;;;16.30;87.60;;;;;;4171852;28;20068;-47
2024/03/15 08:16:23;;;;;;;8.73;7.28;;;16.30;87.60;;;;;;4159740;28;20052;-39
2024/03/15 08:19:06;;;;;;;9.18;7.53;;;16.30;87.50;;;;;;4160627;28;20423;-39
2024/03/15 08:21:50;;;;;;;9.60;7.15;;;16.30;87.40;;;;;;4160079;28;20408;-39
2024/03/15 08:24:32;;;;;;;10.55;7.30;;;16.30;87.40;;;;;;4150940;28;20044;-47
2024/03/15 08:27:13;;;;;;;9.25;7.32;;;16.30;87.40;;;;;;4159300;28;20557;-46
2024/03/15 08:29:55;;;;;;;7.47;6.68;;;16.40;87.40;;;;;;4154861;28;20046;-39
2024/03/15 08:32:36;;;;;;;7.75;5.53;;;16.40;87.50;;;;;;4146622;28;20055;-39
2024/03/15 08:35:17;;;;;;;;;;;16.40;87.40;;;;;;4171579;28;20400;-39
2024/03/15 08:37:58;;;;;;;10.90;7.68;;;16.30;87.40;;;;;;4187671;28;19927;-39
2024/03/15 08:40:40;;;;;;;9.18;6.68;;;16.30;87.50;;;;;;4165117;28;20105;-39
2024/03/15 08:43:21;;;;;;;8.27;7.47;;;16.30;87.40;;;;;;4185557;28;20399;-39
2024/03/15 08:46:04;;;;;;;8.10;6.35;;;16.40;87.50;;;;;;4183825;28;20055;-40
2024/03/15 08:48:45;;;;;;;8.80;6.13;;;16.30;88.40;;;;;;4175478;28;20071;-41
2024/03/15 08:51:27;;;;;;;6.88;5.72;;;16.40;87.60;;;;;;4174250;28;20125;-40
2024/03/15 08:54:09;;;;;;;9.73;6.32;;;16.30;87.50;;;;;;4172609;28;20051;-40
2024/03/15 08:56:50;;;;;;;11.13;3.13;;;16.30;87.50;;;;;;4163424;28;20129;-40
2024/03/15 08:59:31;;;;;;;6.30;5.03;;;16.40;87.60;;;;;;4165941;28;20071;-39
2024/03/15 09:02:12;;;;;;;6.20;5.38;;;16.40;87.60;;;;;;4172361;28;20059;-40
2024/03/15 09:04:53;;;;;;;8.18;6.05;;;16.40;87.60;;;;;;4164732;28;20048;-51
2024/03/15 09:07:34;;;;;;;8.98;5.80;;;16.40;87.60;;;;;;4163574;28;20060;-50
2024/03/15 09:10:16;;;;;;;4.80;4.10;;;16.40;87.50;;;;;;4158768;28;20059;-51
2024/03/15 09:12:57;;;;;;;9.15;5.78;;;16.40;87.70;;;;;;4164669;28;20095;-45
2024/03/15 09:15:38;;;;;;;5.15;3.40;;;16.30;88.10;;;;;;4174427;28;20047;-46
2024/03/15 09:18:19;;;;;;;;;;;16.40;89.20;;;;;;4183993;28;20113;-46
2024/03/15 09:21:01;;;;;;;6.32;4.05;;;16.40;88.40;;;;;;4185597;28;19931;-47
2024/03/15 09:23:43;;;;;;;10.32;5.50;;;16.40;88.30;;;;;;4182750;28;20067;-46
2024/03/15 09:26:24;;;;;;;7.47;4.25;;;16.40;88.20;;;;;;4189009;28;20055;-50
2024/03/15 09:29:06;;;;;;;;;;;16.50;88.50;;;;;;4187784;28;20148;-41
2024/03/15 09:31:51;;;;;;;3.22;2.95;;;16.50;88.30;;;;;;4187255;28;19974;-40
2024/03/15 09:34:43;;;;;;;6.25;4.30;;;16.50;88.10;;;;;;4173514;28;20068;-42
2024/03/15 09:37:24;;;;;;;4.05;3.30;;;16.60;88.00;;;;;;4184152;28;20097;-41
2024/03/15 09:40:06;;;;;;;;;;;16.60;87.80;;;;;;4172892;28;20185;-40
2024/03/15 09:42:48;;;;;;;;;;;16.60;87.60;;;;;;4183986;28;19931;-42
2024/03/15 09:45:30;;;;;;;9.23;4.53;;;16.60;87.50;;;;;;4182703;28;19928;-40
2024/03/15 09:48:11;;;;;;;6.40;4.70;;;16.60;87.40;;;;;;4171405;28;20494;-41
2024/03/15 09:50:53;;;;;;;8.55;5.20;;;16.60;87.30;;;;;;4182831;28;20051;-40
2024/03/15 09:53:34;;;;;;;;;;;16.60;87.20;;;;;;4183799;28;20059;-40
2024/03/15 09:56:15;;;;;;;5.60;3.08;;;16.70;87.20;;;;;;4183696;28;19931;-41
2024/03/15 09:58:57;;;;;;;7.65;5.25;;;16.70;87.30;;;;;;4182813;28;20193;-39
2024/03/15 10:01:38;;;;;;;5.78;4.70;;;16.70;87.10;;;;;;4181446;28;20052;-42
2024/03/15 10:04:19;;;;;;;7.05;4.75;;;16.70;86.90;;;;;;4181818;28;20063;-42
2024/03/15 10:07:01;;;;;;;5.22;3.88;;;16.70;86.70;;;;;;4174550;28;20060;-40
2024/03/15 10:09:42;;;;;;;;;;;16.80;86.60;;;;;;4170216;28;20054;-41
2024/03/15 10:12:23;;;;;;;7.53;3.93;;;16.80;86.80;;;;;;4169623;28;20066;-39
2024/03/15 10:15:05;;;;;;;9.98;5.05;;;16.80;86.90;;;;;;4170191;28;21164;-42
2024/03/15 10:17:46;;;;;;;6.70;4.60;;;16.80;86.80;;;;;;4181860;28;20067;-41
2024/03/15 10:20:28;;;;;;;11.93;4.60;;;16.80;86.40;;;;;;4182899;28;20125;-41
2024/03/15 10:23:10;;;;;;;7.55;4.13;;;16.80;86.10;;;;;;4170537;28;20573;-42
2024/03/15 10:25:51;;;;;;;4.80;4.00;;;16.80;86.00;;;;;;4159596;28;20064;-42
2024/03/15 10:28:33;;;;;;;6.28;3.95;;;16.80;86.00;;;;;;4172860;28;20078;-40
2024/03/15 10:31:16;;;;;;;9.27;4.00;;;16.80;86.00;;;;;;4185457;28;20052;-51
2024/03/15 10:33:57;;;;;;;6.35;3.63;;;16.80;85.80;;;;;;4185444;28;20054;-41
2024/03/15 10:36:39;;;;;;;6.30;3.38;;;16.80;85.70;;;;;;4172968;28;20047;-41
2024/03/15 10:39:23;;;;;;;7.78;3.72;;;16.80;85.70;;;;;;4158720;28;20058;-41
2024/03/15 10:42:05;;;;;;;4.63;3.13;;;16.70;85.60;;;;;;4183971;28;20379;-41
2024/03/15 10:44:49;;;;;;;7.03;3.50;;;16.70;85.50;;;;;;4185293;28;20051;-51
2024/03/15 10:47:31;;;;;;;7.40;4.13;;;16.70;85.60;;;;;;4188344;28;20506;-41
2024/03/15 10:50:12;;;;;;;4.78;3.50;;;16.60;85.50;;;;;;4187741;28;20121;-41
2024/03/15 10:52:53;;;;;;;3.67;3.35;;;16.60;85.70;;;;;;4186733;28;20399;-41
2024/03/15 10:55:37;;;;;;;4.82;3.55;;;16.60;85.80;;;;;;4187963;28;20047;-42
2024/03/15 10:58:18;;;;;;;5.07;3.22;;;16.60;85.90;;;;;;4176415;28;20181;-47
2024/03/15 11:01:01;;;;;;;5.93;4.05;;;16.60;86.10;;;;;;4188676;28;20056;-51
2024/03/15 11:03:43;;;;;;;8.18;3.75;;;16.60;86.10;;;;;;4177269;28;20063;-47
2024/03/15 11:06:37;;;;;;;;;;;16.60;86.10;;;;;;4189093;28;20110;-41
2024/03/15 11:09:22;;;;;;;6.65;3.08;;;16.60;86.10;;;;;;4187559;28;19973;-41
2024/03/15 11:12:04;;;;;;;4.60;2.47;;;16.60;86.10;;;;;;4188360;28;20113;-41
2024/03/15 11:14:45;;;;;;;7.28;2.72;;;16.60;86.00;;;;;;4177124;28;20613;-41
2024/03/15 11:17:27;;;;;;;5.85;2.05;;;16.60;85.80;;;;;;4171698;28;20118;-41
2024/03/15 11:20:10;;;;;;;5.22;2.05;;;16.60;85.90;;;;;;4176979;28;20067;-41
2024/03/15 11:22:55;;;;;;;4.63;1.77;;;16.60;85.70;;;;;;4175809;28;20060;-40
2024/03/15 11:25:38;;;;;;;2.92;1.70;;;16.70;85.80;;;;;;4170983;28;20055;-40
2024/03/15 11:28:19;;;;;;;9.07;1.92;;;16.70;85.50;;;;;;4173448;28;20102;-41
2024/03/15 11:31:01;;;;;;;4.93;1.90;;;16.70;84.90;;;;;;4176408;28;20121;-41
2024/03/15 11:33:42;;;;;;;7.65;1.90;;;16.70;84.80;;;;;;4186542;28;20060;-48
2024/03/15 11:36:23;;;;;;;3.75;1.45;;;16.70;84.90;;;;;;4188154;28;20071;-42
2024/03/15 11:39:04;;;;;;;9.63;2.10;;;16.70;84.80;;;;;;4188480;28;20181;-50
2024/03/15 11:41:47;;;;;;;5.93;2.22;;;16.70;85.10;;;;;;4187472;28;20083;-51
2024/03/15 11:44:27;;;;;;;6.63;1.97;;;16.70;85.10;;;;;;4175421;28;20060;-49
2024/03/15 11:47:09;;;;;;;5.22;1.70;;;16.80;85.00;;;;;;4172186;28;20083;-48
2024/03/15 11:49:56;;;;;;;8.63;2.03;;;16.80;85.10;;;;;;4163556;28;20572;-49
2024/03/15 11:52:37;;;;;;;6.28;1.73;;;16.80;86.00;;;;;;4174523;28;20063;-47
2024/03/15 11:55:18;;;;;;;8.00;2.20;;;16.80;85.20;;;;;;4176117;28;20056;-49
2024/03/15 11:58:00;;;;;;;5.53;2.10;;;16.80;84.90;;;;;;4170251;28;20043;-50
2024/03/15 12:00:41;;;;;;;8.45;2.50;;;16.90;84.70;;;;;;4169850;28;20493;-49
2024/03/15 12:03:23;;;;;;;;;;;16.90;84.40;;;;;;4163532;28;20516;-41
2024/03/15 12:06:06;;;;;;;;;;;16.90;84.30;;;;;;4186515;28;20441;-42
2024/03/15 12:08:48;;;;;;;5.53;2.13;;;16.90;84.50;;;;;;4187325;28;19930;-41
2024/03/15 12:11:29;;;;;;;5.63;2.08;;;16.90;84.30;;;;;;4161192;28;20098;-41
2024/03/15 12:14:13;;;;;;;7.45;2.33;;;16.90;84.20;;;;;;4162500;28;20052;-50
2024/03/15 12:16:54;;;;;;;10.18;2.40;;;16.90;83.70;;;;;;4173547;28;20060;-48
2024/03/15 12:19:36;;;;;;;4.32;2.60;;;17.00;83.90;;;;;;4167755;28;20071;-42
2024/03/15 12:22:17;;;;;;;10.15;2.47;;;17.00;83.80;;;;;;4173493;28;20064;-42
2024/03/15 12:24:58;;;;;;;4.93;1.80;;;17.00;83.70;;;;;;4164070;28;20052;-42
2024/03/15 12:27:39;;;;;;;10.85;2.70;;;17.00;83.70;;;;;;4175013;28;20573;-42
2024/03/15 12:30:20;;;;;;;8.38;1.88;;;17.00;83.80;;;;;;4165391;28;20067;-42
2024/03/15 12:33:02;;;;;;;9.38;3.17;;;17.00;83.90;;;;;;4163822;28;20426;-43
2024/03/15 12:35:43;;;;;;;5.68;2.17;;;17.00;84.90;;;;;;4175422;28;20133;-42
2024/03/15 12:38:24;;;;;;;;;;;17.00;84.20;;;;;;4160346;28;20078;-42
2024/03/15 12:41:05;;;;;;;4.72;2.50;;;17.00;83.90;;;;;;4187370;28;20357;-42
2024/03/15 12:43:47;;;;;;;3.70;2.75;;;17.00;84.00;;;;;;4167903;28;20059;-42
2024/03/15 12:46:28;;;;;;;5.82;2.38;;;17.00;84.00;;;;;;4138400;28;20416;-42
2024/03/15 12:49:09;;;;;;;8.88;2.78;;;17.00;84.00;;;;;;4181723;28;20052;-42
2024/03/15 12:51:50;;;;;;;7.13;3.15;;;17.00;84.10;;;;;;4175022;28;20552;-42
2024/03/15 12:54:31;;;;;;;7.22;3.63;;;17.00;84.10;;;;;;4187417;28;20126;-42
2024/03/15 12:57:12;;;;;;;6.97;2.83;;;17.00;84.10;;;;;;4186820;28;20051;-42
2024/03/15 12:59:56;;;;;;;9.68;3.30;;;17.00;84.10;;;;;;4170473;28;20179;-42
2024/03/15 13:02:37;;;;;;;5.82;2.67;;;17.00;84.00;;;;;;4160146;28;20130;-42
2024/03/15 13:05:18;;;;;;;11.10;3.78;;;17.10;83.20;;;;;;4159444;28;20499;-42
2024/03/15 13:07:59;;;;;;;12.75;3.03;;;17.10;84.20;;;;;;4158725;28;20060;-42
2024/03/15 13:10:40;;;;;;;10.85;3.65;;;17.00;84.10;;;;;;4186720;28;20109;-42
2024/03/15 13:13:21;;;;;;;10.88;4.03;;;17.10;84.30;;;;;;4175536;28;20056;-42
2024/03/15 13:16:02;;;;;;;8.35;3.45;;;17.00;84.30;;;;;;4186006;28;20102;-42
2024/03/15 13:18:43;;;;;;;8.52;3.55;;;17.10;84.40;;;;;;4185085;28;20077;-42
2024/03/15 13:21:24;;;;;;;6.63;3.28;;;17.10;84.40;;;;;;4161988;28;20052;-42
2024/03/15 13:24:06;;;;;;;7.45;3.45;;;17.10;84.40;;;;;;4186778;28;20182;-42
2024/03/15 13:26:47;;;;;;;9.73;3.92;;;17.10;84.50;;;;;;4158790;28;20059;-42
2024/03/15 13:29:27;;;;;;;4.63;3.42;;;17.10;84.40;;;;;;4179914;28;20059;-42
2024/03/15 13:32:09;;;;;;;7.10;3.92;;;17.10;84.40;;;;;;4172913;28;20052;-42
2024/03/15 13:34:50;;;;;;;8.45;3.72;;;17.10;84.40;;;;;;4160305;28;20056;-51
2024/03/15 13:37:31;;;;;;;7.72;3.88;;;17.10;84.40;;;;;;4158626;28;20060;-49
2024/03/15 13:40:15;;;;;;;6.75;3.63;;;17.10;84.40;;;;;;4158850;28;20554;-50
2024/03/15 13:42:56;;;;;;;9.77;3.85;;;17.10;84.50;;;;;;4158984;28;20115;-42
2024/03/15 13:45:38;;;;;;;7.93;3.58;;;17.10;84.70;;;;;;4154231;28;20834;-42
2024/03/15 13:48:20;;;;;;;8.27;3.33;;;17.10;84.60;;;;;;4163188;28;20047;-42
2024/03/15 13:51:01;;;;;;;7.18;3.38;;;17.10;84.50;;;;;;4171733;28;20109;-42
2024/03/15 13:53:44;;;;;;;8.27;3.85;;;17.10;84.60;;;;;;4186176;28;20086;-42
2024/03/15 13:56:25;;;;;;;8.23;3.85;;;17.10;84.60;;;;;;4174788;28;20051;-42
2024/03/15 13:59:07;;;;;;;8.10;4.68;;;17.10;84.50;;;;;;4173712;28;20071;-42
2024/03/15 14:01:48;;;;;;;8.10;3.22;;;17.10;84.50;;;;;;4170541;28;20117;-41
2024/03/15 14:04:30;;;;;;;5.65;3.25;;;17.10;84.40;;;;;;4164047;28;20126;-51
2024/03/15 14:07:10;;;;;;;6.95;2.67;;;17.10;84.30;;;;;;4170857;28;20047;-52